sensor_id;sensor_type;location;lat;lon;timestamp;P1;durP1;ratioP1;P2;durP2;ratioP2
17796;SDS011;55596;53.554;9.916;2022-10-31T00:02:06;30.70;;;21.37;;
17796;SDS011;55596;53.554;9.916;2022-10-31T00:04:34;31.27;;;22.10;;
17796;SDS011;55596;53.554;9.916;2022-10-31T00:07:00;35.47;;;22.93;;
17796;SDS011;55596;53.554;9.916;2022-10-31T00:09:27;40.67;;;23.97;;
17796;SDS011;55596;53.554;9.916;2022-10-31T00:11:56;44.33;;;24.13;;
17796;SDS011;55596;53.554;9.916;2022-10-31T00:14:23;35.70;;;24.23;;
17796;SDS011;55596;53.554;9.916;2022-10-31T00:16:50;36.10;;;23.90;;
17796;SDS011;55596;53.554;9.916;2022-10-31T00:19:17;41.33;;;24.93;;
17796;SDS011;55596;53.554;9.916;2022-10-31T00:21:43;42.13;;;25.83;;
17796;SDS011;55596;53.554;9.916;2022-10-31T00:24:11;41.23;;;25.43;;
17796;SDS011;55596;53.554;9.916;2022-10-31T00:26:38;39.70;;;25.13;;
17796;SDS011;55596;53.554;9.916;2022-10-31T00:29:07;45.30;;;25.80;;
17796;SDS011;55596;53.554;9.916;2022-10-31T00:31:34;39.83;;;25.37;;
17796;SDS011;55596;53.554;9.916;2022-10-31T00:34:04;38.43;;;25.37;;
17796;SDS011;55596;53.554;9.916;2022-10-31T00:36:31;43.87;;;26.70;;
17796;SDS011;55596;53.554;9.916;2022-10-31T00:38:58;42.17;;;26.70;;
17796;SDS011;55596;53.554;9.916;2022-10-31T00:41:26;46.90;;;25.90;;
17796;SDS011;55596;53.554;9.916;2022-10-31T00:43:54;51.27;;;27.47;;
17796;SDS011;55596;53.554;9.916;2022-10-31T00:46:25;47.83;;;26.43;;
17796;SDS011;55596;53.554;9.916;2022-10-31T00:48:52;38.67;;;26.87;;
17796;SDS011;55596;53.554;9.916;2022-10-31T00:51:19;47.57;;;27.93;;
17796;SDS011;55596;53.554;9.916;2022-10-31T00:53:46;42.77;;;27.30;;
17796;SDS011;55596;53.554;9.916;2022-10-31T00:56:13;48.60;;;27.80;;
17796;SDS011;55596;53.554;9.916;2022-10-31T00:58:41;40.97;;;27.43;;
17796;SDS011;55596;53.554;9.916;2022-10-31T01:01:08;46.83;;;26.83;;
17796;SDS011;55596;53.554;9.916;2022-10-31T01:03:38;50.40;;;30.93;;
17796;SDS011;55596;53.554;9.916;2022-10-31T01:06:05;47.80;;;30.70;;
17796;SDS011;55596;53.554;9.916;2022-10-31T01:08:34;52.63;;;30.50;;
17796;SDS011;55596;53.554;9.916;2022-10-31T01:11:03;49.87;;;31.13;;
17796;SDS011;55596;53.554;9.916;2022-10-31T01:13:35;48.17;;;31.70;;
17796;SDS011;55596;53.554;9.916;2022-10-31T01:16:02;53.77;;;32.33;;
17796;SDS011;55596;53.554;9.916;2022-10-31T01:18:34;56.87;;;32.37;;
17796;SDS011;55596;53.554;9.916;2022-10-31T01:21:04;59.13;;;32.67;;
17796;SDS011;55596;53.554;9.916;2022-10-31T01:23:32;53.53;;;31.23;;
17796;SDS011;55596;53.554;9.916;2022-10-31T01:26:02;48.37;;;32.03;;
17796;SDS011;55596;53.554;9.916;2022-10-31T01:28:33;58.13;;;33.40;;
17796;SDS011;55596;53.554;9.916;2022-10-31T01:31:02;52.90;;;32.77;;
17796;SDS011;55596;53.554;9.916;2022-10-31T01:33:31;65.33;;;35.00;;
17796;SDS011;55596;53.554;9.916;2022-10-31T01:35:58;66.97;;;36.80;;
17796;SDS011;55596;53.554;9.916;2022-10-31T01:38:26;57.83;;;36.10;;
17796;SDS011;55596;53.554;9.916;2022-10-31T01:40:54;61.53;;;35.00;;
17796;SDS011;55596;53.554;9.916;2022-10-31T01:43:21;58.90;;;37.47;;
17796;SDS011;55596;53.554;9.916;2022-10-31T01:45:49;63.90;;;37.00;;
17796;SDS011;55596;53.554;9.916;2022-10-31T01:48:21;63.17;;;38.03;;
17796;SDS011;55596;53.554;9.916;2022-10-31T01:50:52;60.33;;;36.53;;
17796;SDS011;55596;53.554;9.916;2022-10-31T01:53:20;71.13;;;37.93;;
17796;SDS011;55596;53.554;9.916;2022-10-31T01:55:50;73.50;;;38.33;;
17796;SDS011;55596;53.554;9.916;2022-10-31T01:58:18;64.93;;;38.80;;
17796;SDS011;55596;53.554;9.916;2022-10-31T02:00:50;72.37;;;40.57;;
17796;SDS011;55596;53.554;9.916;2022-10-31T02:03:20;72.67;;;41.53;;
17796;SDS011;55596;53.554;9.916;2022-10-31T02:05:48;71.00;;;39.93;;
17796;SDS011;55596;53.554;9.916;2022-10-31T02:08:16;65.83;;;41.73;;
17796;SDS011;55596;53.554;9.916;2022-10-31T02:10:46;78.47;;;42.33;;
17796;SDS011;55596;53.554;9.916;2022-10-31T02:13:15;71.77;;;44.07;;
17796;SDS011;55596;53.554;9.916;2022-10-31T02:15:42;78.57;;;44.47;;
17796;SDS011;55596;53.554;9.916;2022-10-31T02:18:11;82.30;;;43.03;;
17796;SDS011;55596;53.554;9.916;2022-10-31T02:20:40;83.83;;;46.03;;
17796;SDS011;55596;53.554;9.916;2022-10-31T02:26:19;79.20;;;44.37;;
17796;SDS011;55596;53.554;9.916;2022-10-31T02:32:05;85.63;;;46.00;;
17796;SDS011;55596;53.554;9.916;2022-10-31T02:34:40;94.53;;;47.60;;
17796;SDS011;55596;53.554;9.916;2022-10-31T02:37:14;86.83;;;45.30;;
17796;SDS011;55596;53.554;9.916;2022-10-31T02:39:47;98.93;;;47.67;;
17796;SDS011;55596;53.554;9.916;2022-10-31T02:42:22;96.77;;;50.23;;
17796;SDS011;55596;53.554;9.916;2022-10-31T02:44:58;94.80;;;48.03;;
17796;SDS011;55596;53.554;9.916;2022-10-31T02:47:31;107.50;;;50.07;;
17796;SDS011;55596;53.554;9.916;2022-10-31T02:50:00;98.60;;;49.17;;
17796;SDS011;55596;53.554;9.916;2022-10-31T02:52:33;104.33;;;50.90;;
17796;SDS011;55596;53.554;9.916;2022-10-31T02:55:08;94.97;;;48.97;;
17796;SDS011;55596;53.554;9.916;2022-10-31T02:57:37;103.40;;;51.40;;
17796;SDS011;55596;53.554;9.916;2022-10-31T03:00:08;105.80;;;53.43;;
17796;SDS011;55596;53.554;9.916;2022-10-31T03:05:40;104.07;;;53.17;;
17796;SDS011;55596;53.554;9.916;2022-10-31T03:08:14;121.20;;;54.93;;
17796;SDS011;55596;53.554;9.916;2022-10-31T03:10:50;112.07;;;52.60;;
17796;SDS011;55596;53.554;9.916;2022-10-31T03:13:21;113.57;;;53.97;;
17796;SDS011;55596;53.554;9.916;2022-10-31T03:16:05;109.43;;;53.07;;
17796;SDS011;55596;53.554;9.916;2022-10-31T03:18:40;106.87;;;50.53;;
17796;SDS011;55596;53.554;9.916;2022-10-31T03:21:10;119.03;;;55.40;;
17796;SDS011;55596;53.554;9.916;2022-10-31T03:23:40;125.13;;;56.73;;
17796;SDS011;55596;53.554;9.916;2022-10-31T03:26:10;116.47;;;56.17;;
17796;SDS011;55596;53.554;9.916;2022-10-31T03:28:40;120.80;;;55.63;;
17796;SDS011;55596;53.554;9.916;2022-10-31T03:31:10;123.13;;;57.23;;
17796;SDS011;55596;53.554;9.916;2022-10-31T03:33:44;125.30;;;56.57;;
17796;SDS011;55596;53.554;9.916;2022-10-31T03:36:11;128.30;;;59.87;;
17796;SDS011;55596;53.554;9.916;2022-10-31T03:38:41;131.30;;;60.30;;
17796;SDS011;55596;53.554;9.916;2022-10-31T03:41:11;141.07;;;60.30;;
17796;SDS011;55596;53.554;9.916;2022-10-31T03:43:43;139.47;;;59.47;;
17796;SDS011;55596;53.554;9.916;2022-10-31T03:46:18;142.10;;;58.37;;
17796;SDS011;55596;53.554;9.916;2022-10-31T03:48:46;144.30;;;58.93;;
17796;SDS011;55596;53.554;9.916;2022-10-31T03:51:14;128.40;;;55.10;;
17796;SDS011;55596;53.554;9.916;2022-10-31T03:53:46;137.50;;;59.70;;
17796;SDS011;55596;53.554;9.916;2022-10-31T03:56:19;159.50;;;62.40;;
17796;SDS011;55596;53.554;9.916;2022-10-31T03:58:55;149.07;;;61.27;;
17796;SDS011;55596;53.554;9.916;2022-10-31T04:01:26;160.60;;;64.87;;
17796;SDS011;55596;53.554;9.916;2022-10-31T04:03:58;159.50;;;65.57;;
17796;SDS011;55596;53.554;9.916;2022-10-31T04:06:26;169.17;;;66.17;;
17796;SDS011;55596;53.554;9.916;2022-10-31T04:08:56;172.00;;;63.03;;
17796;SDS011;55596;53.554;9.916;2022-10-31T04:11:27;178.20;;;65.97;;
17796;SDS011;55596;53.554;9.916;2022-10-31T04:13:57;161.80;;;64.47;;
17796;SDS011;55596;53.554;9.916;2022-10-31T04:16:26;173.13;;;66.40;;
17796;SDS011;55596;53.554;9.916;2022-10-31T04:18:53;169.30;;;64.47;;
17796;SDS011;55596;53.554;9.916;2022-10-31T04:21:27;165.13;;;65.57;;
17796;SDS011;55596;53.554;9.916;2022-10-31T04:23:55;171.17;;;66.47;;
17796;SDS011;55596;53.554;9.916;2022-10-31T04:26:22;176.53;;;65.87;;
17796;SDS011;55596;53.554;9.916;2022-10-31T04:28:49;170.03;;;64.40;;
17796;SDS011;55596;53.554;9.916;2022-10-31T04:31:16;170.70;;;67.33;;
17796;SDS011;55596;53.554;9.916;2022-10-31T04:33:43;182.93;;;70.27;;
17796;SDS011;55596;53.554;9.916;2022-10-31T04:36:10;195.20;;;69.63;;
17796;SDS011;55596;53.554;9.916;2022-10-31T04:38:38;188.90;;;67.83;;
17796;SDS011;55596;53.554;9.916;2022-10-31T04:41:05;182.43;;;67.13;;
17796;SDS011;55596;53.554;9.916;2022-10-31T04:43:32;178.30;;;68.00;;
17796;SDS011;55596;53.554;9.916;2022-10-31T04:45:59;205.30;;;70.97;;
17796;SDS011;55596;53.554;9.916;2022-10-31T04:48:26;186.47;;;70.23;;
17796;SDS011;55596;53.554;9.916;2022-10-31T04:50:52;191.63;;;68.67;;
17796;SDS011;55596;53.554;9.916;2022-10-31T04:53:24;199.70;;;69.73;;
17796;SDS011;55596;53.554;9.916;2022-10-31T04:55:52;207.60;;;67.63;;
17796;SDS011;55596;53.554;9.916;2022-10-31T04:58:19;187.87;;;68.07;;
17796;SDS011;55596;53.554;9.916;2022-10-31T05:00:45;170.03;;;68.33;;
17796;SDS011;55596;53.554;9.916;2022-10-31T05:03:12;182.63;;;66.83;;
17796;SDS011;55596;53.554;9.916;2022-10-31T05:05:39;187.13;;;66.77;;
17796;SDS011;55596;53.554;9.916;2022-10-31T05:08:07;234.83;;;69.20;;
17796;SDS011;55596;53.554;9.916;2022-10-31T05:10:34;213.67;;;66.20;;
17796;SDS011;55596;53.554;9.916;2022-10-31T05:13:03;201.70;;;66.83;;
17796;SDS011;55596;53.554;9.916;2022-10-31T05:15:30;195.80;;;66.33;;
17796;SDS011;55596;53.554;9.916;2022-10-31T05:17:57;219.87;;;68.63;;
17796;SDS011;55596;53.554;9.916;2022-10-31T05:20:25;174.67;;;61.37;;
17796;SDS011;55596;53.554;9.916;2022-10-31T05:22:53;217.40;;;63.57;;
17796;SDS011;55596;53.554;9.916;2022-10-31T05:25:22;303.20;;;67.37;;
17796;SDS011;55596;53.554;9.916;2022-10-31T05:27:51;198.80;;;62.77;;
17796;SDS011;55596;53.554;9.916;2022-10-31T05:30:20;277.53;;;65.63;;
17796;SDS011;55596;53.554;9.916;2022-10-31T05:32:50;310.63;;;65.23;;
17796;SDS011;55596;53.554;9.916;2022-10-31T05:35:17;500.77;;;67.50;;
17796;SDS011;55596;53.554;9.916;2022-10-31T05:37:45;318.27;;;61.17;;
17796;SDS011;55596;53.554;9.916;2022-10-31T05:40:13;303.87;;;60.37;;
17796;SDS011;55596;53.554;9.916;2022-10-31T05:42:43;513.07;;;68.53;;
17796;SDS011;55596;53.554;9.916;2022-10-31T05:45:10;589.17;;;69.87;;
17796;SDS011;55596;53.554;9.916;2022-10-31T05:47:40;582.30;;;68.00;;
17796;SDS011;55596;53.554;9.916;2022-10-31T05:50:08;313.33;;;58.53;;
17796;SDS011;55596;53.554;9.916;2022-10-31T05:52:35;218.63;;;55.50;;
17796;SDS011;55596;53.554;9.916;2022-10-31T05:55:02;535.07;;;68.77;;
17796;SDS011;55596;53.554;9.916;2022-10-31T05:57:31;491.90;;;63.47;;
17796;SDS011;55596;53.554;9.916;2022-10-31T05:59:59;531.43;;;69.90;;
17796;SDS011;55596;53.554;9.916;2022-10-31T06:02:26;566.33;;;67.97;;
17796;SDS011;55596;53.554;9.916;2022-10-31T06:04:58;529.40;;;66.27;;
17796;SDS011;55596;53.554;9.916;2022-10-31T06:07:25;504.93;;;68.97;;
17796;SDS011;55596;53.554;9.916;2022-10-31T06:09:52;461.93;;;64.97;;
17796;SDS011;55596;53.554;9.916;2022-10-31T06:12:19;279.83;;;59.90;;
17796;SDS011;55596;53.554;9.916;2022-10-31T06:14:46;358.73;;;55.53;;
17796;SDS011;55596;53.554;9.916;2022-10-31T06:17:13;354.20;;;58.57;;
17796;SDS011;55596;53.554;9.916;2022-10-31T06:19:40;469.97;;;60.77;;
17796;SDS011;55596;53.554;9.916;2022-10-31T06:22:08;397.53;;;57.20;;
17796;SDS011;55596;53.554;9.916;2022-10-31T06:24:36;328.90;;;58.30;;
17796;SDS011;55596;53.554;9.916;2022-10-31T06:27:03;251.13;;;55.27;;
17796;SDS011;55596;53.554;9.916;2022-10-31T06:29:30;473.50;;;62.27;;
17796;SDS011;55596;53.554;9.916;2022-10-31T06:31:56;426.20;;;55.40;;
17796;SDS011;55596;53.554;9.916;2022-10-31T06:34:27;321.77;;;53.53;;
17796;SDS011;55596;53.554;9.916;2022-10-31T06:36:53;507.80;;;60.07;;
17796;SDS011;55596;53.554;9.916;2022-10-31T06:39:22;364.13;;;55.33;;
17796;SDS011;55596;53.554;9.916;2022-10-31T06:41:48;508.77;;;59.03;;
17796;SDS011;55596;53.554;9.916;2022-10-31T06:44:15;465.93;;;56.83;;
17796;SDS011;55596;53.554;9.916;2022-10-31T06:46:42;344.37;;;50.23;;
17796;SDS011;55596;53.554;9.916;2022-10-31T06:49:09;499.10;;;54.00;;
17796;SDS011;55596;53.554;9.916;2022-10-31T06:51:35;612.67;;;62.13;;
17796;SDS011;55596;53.554;9.916;2022-10-31T06:54:02;465.13;;;50.67;;
17796;SDS011;55596;53.554;9.916;2022-10-31T06:56:30;337.57;;;48.23;;
17796;SDS011;55596;53.554;9.916;2022-10-31T06:58:57;424.67;;;52.93;;
17796;SDS011;55596;53.554;9.916;2022-10-31T07:01:24;534.87;;;58.37;;
17796;SDS011;55596;53.554;9.916;2022-10-31T07:03:51;1147.30;;;70.93;;
17796;SDS011;55596;53.554;9.916;2022-10-31T07:06:18;685.30;;;62.33;;
17796;SDS011;55596;53.554;9.916;2022-10-31T07:08:44;788.37;;;63.67;;
17796;SDS011;55596;53.554;9.916;2022-10-31T07:11:11;637.13;;;53.17;;
17796;SDS011;55596;53.554;9.916;2022-10-31T07:13:39;667.07;;;56.97;;
17796;SDS011;55596;53.554;9.916;2022-10-31T07:16:07;717.13;;;53.67;;
17796;SDS011;55596;53.554;9.916;2022-10-31T07:18:36;513.20;;;48.47;;
17796;SDS011;55596;53.554;9.916;2022-10-31T07:21:03;500.37;;;48.30;;
17796;SDS011;55596;53.554;9.916;2022-10-31T07:23:30;322.67;;;40.30;;
17796;SDS011;55596;53.554;9.916;2022-10-31T07:25:57;460.40;;;44.80;;
17796;SDS011;55596;53.554;9.916;2022-10-31T07:28:25;502.83;;;50.13;;
17796;SDS011;55596;53.554;9.916;2022-10-31T07:30:55;380.60;;;44.47;;
17796;SDS011;55596;53.554;9.916;2022-10-31T07:33:22;566.67;;;46.87;;
17796;SDS011;55596;53.554;9.916;2022-10-31T07:35:51;391.67;;;45.13;;
17796;SDS011;55596;53.554;9.916;2022-10-31T07:38:17;240.80;;;38.67;;
17796;SDS011;55596;53.554;9.916;2022-10-31T07:40:48;585.07;;;55.03;;
17796;SDS011;55596;53.554;9.916;2022-10-31T07:43:16;424.33;;;49.17;;
17796;SDS011;55596;53.554;9.916;2022-10-31T07:45:43;505.50;;;48.83;;
17796;SDS011;55596;53.554;9.916;2022-10-31T07:48:11;542.10;;;48.40;;
17796;SDS011;55596;53.554;9.916;2022-10-31T07:50:38;564.07;;;47.10;;
17796;SDS011;55596;53.554;9.916;2022-10-31T07:53:06;536.07;;;47.43;;
17796;SDS011;55596;53.554;9.916;2022-10-31T07:55:34;439.33;;;44.60;;
17796;SDS011;55596;53.554;9.916;2022-10-31T07:58:02;359.57;;;39.90;;
17796;SDS011;55596;53.554;9.916;2022-10-31T08:00:30;366.47;;;40.63;;
17796;SDS011;55596;53.554;9.916;2022-10-31T08:02:58;413.83;;;42.23;;
17796;SDS011;55596;53.554;9.916;2022-10-31T08:05:26;205.77;;;36.27;;
17796;SDS011;55596;53.554;9.916;2022-10-31T08:07:53;493.23;;;55.93;;
17796;SDS011;55596;53.554;9.916;2022-10-31T08:10:20;187.60;;;36.10;;
17796;SDS011;55596;53.554;9.916;2022-10-31T08:12:54;228.80;;;40.90;;
17796;SDS011;55596;53.554;9.916;2022-10-31T08:15:22;114.77;;;34.90;;
17796;SDS011;55596;53.554;9.916;2022-10-31T08:17:48;231.63;;;34.60;;
17796;SDS011;55596;53.554;9.916;2022-10-31T08:20:15;352.10;;;35.00;;
17796;SDS011;55596;53.554;9.916;2022-10-31T08:22:44;296.57;;;35.77;;
17796;SDS011;55596;53.554;9.916;2022-10-31T08:25:19;455.57;;;49.60;;
17796;SDS011;55596;53.554;9.916;2022-10-31T08:27:48;299.10;;;39.77;;
17796;SDS011;55596;53.554;9.916;2022-10-31T08:30:15;546.70;;;55.10;;
17796;SDS011;55596;53.554;9.916;2022-10-31T08:32:42;374.03;;;44.10;;
17796;SDS011;55596;53.554;9.916;2022-10-31T08:35:09;177.13;;;30.13;;
17796;SDS011;55596;53.554;9.916;2022-10-31T08:37:36;308.30;;;39.90;;
17796;SDS011;55596;53.554;9.916;2022-10-31T08:40:04;261.40;;;32.40;;
17796;SDS011;55596;53.554;9.916;2022-10-31T08:42:32;181.53;;;22.70;;
17796;SDS011;55596;53.554;9.916;2022-10-31T08:44:59;175.23;;;23.37;;
17796;SDS011;55596;53.554;9.916;2022-10-31T08:47:25;153.47;;;24.10;;
17796;SDS011;55596;53.554;9.916;2022-10-31T08:49:52;303.97;;;32.03;;
17796;SDS011;55596;53.554;9.916;2022-10-31T08:52:22;249.33;;;26.80;;
17796;SDS011;55596;53.554;9.916;2022-10-31T08:54:49;107.20;;;25.47;;
17796;SDS011;55596;53.554;9.916;2022-10-31T08:57:17;437.33;;;40.00;;
17796;SDS011;55596;53.554;9.916;2022-10-31T08:59:43;200.27;;;24.03;;
17796;SDS011;55596;53.554;9.916;2022-10-31T09:02:10;423.17;;;28.90;;
17796;SDS011;55596;53.554;9.916;2022-10-31T09:04:37;476.87;;;25.77;;
17796;SDS011;55596;53.554;9.916;2022-10-31T09:07:04;362.27;;;25.90;;
17796;SDS011;55596;53.554;9.916;2022-10-31T09:09:30;321.00;;;22.83;;
17796;SDS011;55596;53.554;9.916;2022-10-31T09:11:57;382.03;;;26.93;;
17796;SDS011;55596;53.554;9.916;2022-10-31T09:14:25;58.10;;;19.00;;
17796;SDS011;55596;53.554;9.916;2022-10-31T09:16:54;54.10;;;18.83;;
17796;SDS011;55596;53.554;9.916;2022-10-31T09:19:21;281.73;;;23.30;;
17796;SDS011;55596;53.554;9.916;2022-10-31T09:21:51;59.80;;;18.73;;
17796;SDS011;55596;53.554;9.916;2022-10-31T09:24:18;219.70;;;21.67;;
17796;SDS011;55596;53.554;9.916;2022-10-31T09:26:45;67.07;;;19.50;;
17796;SDS011;55596;53.554;9.916;2022-10-31T09:29:12;28.77;;;19.07;;
17796;SDS011;55596;53.554;9.916;2022-10-31T09:31:40;49.57;;;19.87;;
17796;SDS011;55596;53.554;9.916;2022-10-31T09:34:07;43.60;;;19.40;;
17796;SDS011;55596;53.554;9.916;2022-10-31T09:36:33;42.77;;;20.23;;
17796;SDS011;55596;53.554;9.916;2022-10-31T09:39:00;97.03;;;20.50;;
17796;SDS011;55596;53.554;9.916;2022-10-31T09:41:29;32.13;;;19.33;;
17796;SDS011;55596;53.554;9.916;2022-10-31T09:44:04;94.10;;;20.70;;
17796;SDS011;55596;53.554;9.916;2022-10-31T09:46:40;42.40;;;19.57;;
17796;SDS011;55596;53.554;9.916;2022-10-31T09:49:24;43.20;;;20.20;;
17796;SDS011;55596;53.554;9.916;2022-10-31T09:52:10;86.83;;;21.77;;
17796;SDS011;55596;53.554;9.916;2022-10-31T09:54:51;130.63;;;23.90;;
17796;SDS011;55596;53.554;9.916;2022-10-31T09:57:22;94.37;;;23.93;;
17796;SDS011;55596;53.554;9.916;2022-10-31T09:59:53;44.07;;;24.07;;
17796;SDS011;55596;53.554;9.916;2022-10-31T10:02:23;69.67;;;24.07;;
17796;SDS011;55596;53.554;9.916;2022-10-31T10:04:56;123.53;;;23.90;;
17796;SDS011;55596;53.554;9.916;2022-10-31T10:07:30;207.83;;;25.93;;
17796;SDS011;55596;53.554;9.916;2022-10-31T10:10:12;120.03;;;24.87;;
17796;SDS011;55596;53.554;9.916;2022-10-31T10:12:44;170.70;;;24.03;;
17796;SDS011;55596;53.554;9.916;2022-10-31T10:15:32;64.77;;;25.03;;
17796;SDS011;55596;53.554;9.916;2022-10-31T10:18:12;100.57;;;25.50;;
17796;SDS011;55596;53.554;9.916;2022-10-31T10:20:50;53.47;;;24.03;;
17796;SDS011;55596;53.554;9.916;2022-10-31T10:23:35;34.43;;;23.20;;
17796;SDS011;55596;53.554;9.916;2022-10-31T10:26:13;41.90;;;22.97;;
17796;SDS011;55596;53.554;9.916;2022-10-31T10:28:44;41.63;;;22.50;;
17796;SDS011;55596;53.554;9.916;2022-10-31T10:31:14;34.50;;;22.03;;
17796;SDS011;55596;53.554;9.916;2022-10-31T10:33:45;37.30;;;21.97;;
17796;SDS011;55596;53.554;9.916;2022-10-31T10:36:21;35.47;;;21.80;;
17796;SDS011;55596;53.554;9.916;2022-10-31T10:38:53;42.03;;;22.03;;
17796;SDS011;55596;53.554;9.916;2022-10-31T10:41:26;35.03;;;24.50;;
17796;SDS011;55596;53.554;9.916;2022-10-31T10:43:57;36.17;;;24.47;;
17796;SDS011;55596;53.554;9.916;2022-10-31T10:46:24;34.93;;;23.97;;
17796;SDS011;55596;53.554;9.916;2022-10-31T10:49:17;35.30;;;25.07;;
17796;SDS011;55596;53.554;9.916;2022-10-31T10:51:46;32.77;;;23.73;;
17796;SDS011;55596;53.554;9.916;2022-10-31T10:54:33;30.93;;;23.33;;
17796;SDS011;55596;53.554;9.916;2022-10-31T10:57:11;35.40;;;25.20;;
17796;SDS011;55596;53.554;9.916;2022-10-31T10:59:46;38.07;;;25.03;;
17796;SDS011;55596;53.554;9.916;2022-10-31T11:02:16;34.40;;;24.47;;
17796;SDS011;55596;53.554;9.916;2022-10-31T11:04:49;34.17;;;25.47;;
17796;SDS011;55596;53.554;9.916;2022-10-31T11:07:18;34.93;;;24.67;;
17796;SDS011;55596;53.554;9.916;2022-10-31T11:09:44;35.73;;;23.67;;
17796;SDS011;55596;53.554;9.916;2022-10-31T11:12:16;37.60;;;25.30;;
17796;SDS011;55596;53.554;9.916;2022-10-31T11:14:47;36.73;;;23.73;;
17796;SDS011;55596;53.554;9.916;2022-10-31T11:17:19;34.70;;;23.90;;
17796;SDS011;55596;53.554;9.916;2022-10-31T11:20:25;32.57;;;23.23;;
17796;SDS011;55596;53.554;9.916;2022-10-31T11:23:16;39.33;;;25.03;;
17796;SDS011;55596;53.554;9.916;2022-10-31T11:25:48;37.93;;;26.33;;
17796;SDS011;55596;53.554;9.916;2022-10-31T11:28:17;38.50;;;26.40;;
17796;SDS011;55596;53.554;9.916;2022-10-31T11:30:45;36.83;;;24.53;;
17796;SDS011;55596;53.554;9.916;2022-10-31T11:33:18;38.37;;;26.53;;
17796;SDS011;55596;53.554;9.916;2022-10-31T11:35:49;37.83;;;26.00;;
17796;SDS011;55596;53.554;9.916;2022-10-31T11:38:19;39.83;;;28.20;;
17796;SDS011;55596;53.554;9.916;2022-10-31T11:40:51;37.00;;;26.77;;
17796;SDS011;55596;53.554;9.916;2022-10-31T11:43:23;40.97;;;27.93;;
17796;SDS011;55596;53.554;9.916;2022-10-31T11:45:51;44.93;;;28.20;;
17796;SDS011;55596;53.554;9.916;2022-10-31T11:48:21;43.17;;;28.93;;
17796;SDS011;55596;53.554;9.916;2022-10-31T11:50:55;44.97;;;28.17;;
17796;SDS011;55596;53.554;9.916;2022-10-31T11:53:25;43.17;;;28.67;;
17796;SDS011;55596;53.554;9.916;2022-10-31T11:56:05;38.67;;;27.73;;
17796;SDS011;55596;53.554;9.916;2022-10-31T11:58:38;41.47;;;27.77;;
17796;SDS011;55596;53.554;9.916;2022-10-31T12:01:05;38.67;;;26.63;;
17796;SDS011;55596;53.554;9.916;2022-10-31T12:03:48;36.73;;;26.80;;
17796;SDS011;55596;53.554;9.916;2022-10-31T12:06:26;37.83;;;27.23;;
17796;SDS011;55596;53.554;9.916;2022-10-31T12:08:57;43.47;;;27.63;;
17796;SDS011;55596;53.554;9.916;2022-10-31T12:11:34;35.93;;;26.70;;
17796;SDS011;55596;53.554;9.916;2022-10-31T12:14:12;40.00;;;26.73;;
17796;SDS011;55596;53.554;9.916;2022-10-31T12:16:48;35.13;;;24.87;;
17796;SDS011;55596;53.554;9.916;2022-10-31T12:19:24;32.93;;;23.43;;
17796;SDS011;55596;53.554;9.916;2022-10-31T12:22:13;33.00;;;22.83;;
17796;SDS011;55596;53.554;9.916;2022-10-31T12:24:52;27.77;;;19.67;;
17796;SDS011;55596;53.554;9.916;2022-10-31T12:27:29;24.50;;;20.27;;
17796;SDS011;55596;53.554;9.916;2022-10-31T12:30:13;28.23;;;20.87;;
17796;SDS011;55596;53.554;9.916;2022-10-31T12:35:44;28.13;;;22.00;;
17796;SDS011;55596;53.554;9.916;2022-10-31T12:41:14;25.50;;;20.77;;
17796;SDS011;55596;53.554;9.916;2022-10-31T12:43:55;26.00;;;21.07;;
17796;SDS011;55596;53.554;9.916;2022-10-31T12:46:30;29.57;;;20.93;;
17796;SDS011;55596;53.554;9.916;2022-10-31T12:49:17;27.37;;;19.30;;
17796;SDS011;55596;53.554;9.916;2022-10-31T12:52:12;26.57;;;19.50;;
17796;SDS011;55596;53.554;9.916;2022-10-31T12:55:08;22.37;;;17.87;;
17796;SDS011;55596;53.554;9.916;2022-10-31T12:57:45;23.27;;;18.43;;
17796;SDS011;55596;53.554;9.916;2022-10-31T13:00:16;25.20;;;18.03;;
17796;SDS011;55596;53.554;9.916;2022-10-31T13:02:48;22.47;;;18.03;;
17796;SDS011;55596;53.554;9.916;2022-10-31T13:05:19;23.03;;;17.87;;
17796;SDS011;55596;53.554;9.916;2022-10-31T13:07:53;23.83;;;18.20;;
17796;SDS011;55596;53.554;9.916;2022-10-31T13:10:25;22.47;;;16.40;;
17796;SDS011;55596;53.554;9.916;2022-10-31T13:12:58;21.77;;;15.43;;
17796;SDS011;55596;53.554;9.916;2022-10-31T13:15:32;19.00;;;15.50;;
17796;SDS011;55596;53.554;9.916;2022-10-31T13:18:11;19.67;;;14.50;;
17796;SDS011;55596;53.554;9.916;2022-10-31T13:20:51;17.93;;;13.80;;
17796;SDS011;55596;53.554;9.916;2022-10-31T13:23:22;18.20;;;14.73;;
17796;SDS011;55596;53.554;9.916;2022-10-31T13:25:55;18.20;;;13.37;;
17796;SDS011;55596;53.554;9.916;2022-10-31T13:28:26;16.80;;;11.93;;
17796;SDS011;55596;53.554;9.916;2022-10-31T13:30:57;17.77;;;13.07;;
17796;SDS011;55596;53.554;9.916;2022-10-31T13:33:25;15.63;;;11.23;;
17796;SDS011;55596;53.554;9.916;2022-10-31T13:35:58;13.77;;;10.17;;
17796;SDS011;55596;53.554;9.916;2022-10-31T13:38:37;14.37;;;9.20;;
17796;SDS011;55596;53.554;9.916;2022-10-31T13:41:13;13.57;;;10.07;;
17796;SDS011;55596;53.554;9.916;2022-10-31T13:43:59;13.30;;;9.53;;
17796;SDS011;55596;53.554;9.916;2022-10-31T13:46:34;12.83;;;9.70;;
17796;SDS011;55596;53.554;9.916;2022-10-31T13:49:02;15.23;;;10.27;;
17796;SDS011;55596;53.554;9.916;2022-10-31T13:51:30;13.50;;;8.30;;
17796;SDS011;55596;53.554;9.916;2022-10-31T13:53:59;13.32;;;9.27;;
17796;SDS011;55596;53.554;9.916;2022-10-31T13:56:48;14.07;;;7.75;;
17796;SDS011;55596;53.554;9.916;2022-10-31T13:59:21;10.93;;;7.22;;
17796;SDS011;55596;53.554;9.916;2022-10-31T14:01:50;13.23;;;8.23;;
17796;SDS011;55596;53.554;9.916;2022-10-31T14:04:20;10.13;;;7.55;;
17796;SDS011;55596;53.554;9.916;2022-10-31T14:06:56;8.82;;;7.65;;
17796;SDS011;55596;53.554;9.916;2022-10-31T14:09:31;11.95;;;7.80;;
17796;SDS011;55596;53.554;9.916;2022-10-31T14:12:02;11.65;;;9.32;;
17796;SDS011;55596;53.554;9.916;2022-10-31T14:14:34;14.82;;;9.13;;
17796;SDS011;55596;53.554;9.916;2022-10-31T14:17:18;14.57;;;8.18;;
17796;SDS011;55596;53.554;9.916;2022-10-31T14:22:50;12.95;;;7.80;;
17796;SDS011;55596;53.554;9.916;2022-10-31T14:25:27;14.68;;;8.05;;
17796;SDS011;55596;53.554;9.916;2022-10-31T14:27:58;13.07;;;7.90;;
17796;SDS011;55596;53.554;9.916;2022-10-31T14:30:27;14.82;;;8.63;;
17796;SDS011;55596;53.554;9.916;2022-10-31T14:32:57;11.07;;;8.18;;
17796;SDS011;55596;53.554;9.916;2022-10-31T14:35:29;12.93;;;9.07;;
17796;SDS011;55596;53.554;9.916;2022-10-31T14:41:03;13.27;;;9.47;;
17796;SDS011;55596;53.554;9.916;2022-10-31T14:43:54;15.37;;;10.10;;
17796;SDS011;55596;53.554;9.916;2022-10-31T14:46:38;14.23;;;10.63;;
17796;SDS011;55596;53.554;9.916;2022-10-31T14:49:17;16.87;;;10.70;;
17796;SDS011;55596;53.554;9.916;2022-10-31T14:51:57;14.50;;;11.00;;
17796;SDS011;55596;53.554;9.916;2022-10-31T14:54:25;15.97;;;11.70;;
17796;SDS011;55596;53.554;9.916;2022-10-31T14:56:56;13.83;;;10.67;;
17796;SDS011;55596;53.554;9.916;2022-10-31T14:59:29;17.10;;;11.87;;